sensor_id;sensor_type;location;lat;lon;timestamp;temperature;humidity
38118;DHT22;23928;47.562;7.508;2024-03-23T00:55:40;12.50;99.90
38118;DHT22;23928;47.562;7.508;2024-03-23T00:58:06;12.50;99.90
38118;DHT22;23928;47.562;7.508;2024-03-23T01:00:31;12.50;99.90
38118;DHT22;23928;47.562;7.508;2024-03-23T01:02:57;12.50;99.90
38118;DHT22;23928;47.562;7.508;2024-03-23T01:05:22;12.50;99.90
38118;DHT22;23928;47.562;7.508;2024-03-23T01:07:48;12.60;99.90
38118;DHT22;23928;47.562;7.508;2024-03-23T01:10:13;12.70;99.90
38118;DHT22;23928;47.562;7.508;2024-03-23T01:12:39;12.70;99.90
38118;DHT22;23928;47.562;7.508;2024-03-23T01:15:05;12.70;99.90
38118;DHT22;23928;47.562;7.508;2024-03-23T01:17:30;12.70;99.90
38118;DHT22;23928;47.562;7.508;2024-03-23T01:19:57;12.80;99.90
38118;DHT22;23928;47.562;7.508;2024-03-23T01:22:22;12.70;99.90
38118;DHT22;23928;47.562;7.508;2024-03-23T01:24:48;12.70;99.90
38118;DHT22;23928;47.562;7.508;2024-03-23T01:27:14;12.60;99.90
38118;DHT22;23928;47.562;7.508;2024-03-23T01:29:40;12.70;99.90
38118;DHT22;23928;47.562;7.508;2024-03-23T01:32:05;12.80;99.90
38118;DHT22;23928;47.562;7.508;2024-03-23T01:34:32;13.00;99.90
38118;DHT22;23928;47.562;7.508;2024-03-23T01:36:58;13.00;99.90
38118;DHT22;23928;47.562;7.508;2024-03-23T01:39:24;13.10;99.90
38118;DHT22;23928;47.562;7.508;2024-03-23T01:41:50;13.00;99.90
38118;DHT22;23928;47.562;7.508;2024-03-23T01:44:15;13.10;99.90
38118;DHT22;23928;47.562;7.508;2024-03-23T01:46:41;13.10;99.90
38118;DHT22;23928;47.562;7.508;2024-03-23T01:49:08;13.00;99.90
38118;DHT22;23928;47.562;7.508;2024-03-23T01:51:34;13.20;99.90
38118;DHT22;23928;47.562;7.508;2024-03-23T01:54:01;13.30;99.90
38118;DHT22;23928;47.562;7.508;2024-03-23T01:56:34;13.30;99.90
38118;DHT22;23928;47.562;7.508;2024-03-23T01:59:03;13.40;99.90
38118;DHT22;23928;47.562;7.508;2024-03-23T02:01:29;13.50;99.90
38118;DHT22;23928;47.562;7.508;2024-03-23T02:03:55;13.40;99.90
38118;DHT22;23928;47.562;7.508;2024-03-23T02:06:21;13.30;99.90
38118;DHT22;23928;47.562;7.508;2024-03-23T02:08:48;13.30;99.90
38118;DHT22;23928;47.562;7.508;2024-03-23T02:11:14;13.30;99.90
38118;DHT22;23928;47.562;7.508;2024-03-23T02:13:39;13.30;99.90
38118;DHT22;23928;47.562;7.508;2024-03-23T02:16:05;13.30;99.90
38118;DHT22;23928;47.562;7.508;2024-03-23T02:18:32;13.20;99.90
38118;DHT22;23928;47.562;7.508;2024-03-23T02:20:57;13.10;99.90
38118;DHT22;23928;47.562;7.508;2024-03-23T02:23:23;13.00;99.90
38118;DHT22;23928;47.562;7.508;2024-03-23T02:25:50;12.90;99.90
38118;DHT22;23928;47.562;7.508;2024-03-23T02:28:15;13.10;99.90
38118;DHT22;23928;47.562;7.508;2024-03-23T02:30:42;13.00;99.90
38118;DHT22;23928;47.562;7.508;2024-03-23T02:33:08;13.00;99.90
38118;DHT22;23928;47.562;7.508;2024-03-23T02:35:34;12.90;99.90
38118;DHT22;23928;47.562;7.508;2024-03-23T02:37:59;12.70;99.90
38118;DHT22;23928;47.562;7.508;2024-03-23T02:40:25;12.60;99.90
38118;DHT22;23928;47.562;7.508;2024-03-23T02:42:51;12.60;99.90
38118;DHT22;23928;47.562;7.508;2024-03-23T02:45:17;12.60;99.90
38118;DHT22;23928;47.562;7.508;2024-03-23T02:47:43;12.60;99.90
38118;DHT22;23928;47.562;7.508;2024-03-23T02:50:08;12.60;99.90
38118;DHT22;23928;47.562;7.508;2024-03-23T02:52:35;12.60;99.90
38118;DHT22;23928;47.562;7.508;2024-03-23T02:55:00;12.50;99.90
38118;DHT22;23928;47.562;7.508;2024-03-23T02:57:27;12.50;99.90
38118;DHT22;23928;47.562;7.508;2024-03-23T02:59:53;12.50;99.90
38118;DHT22;23928;47.562;7.508;2024-03-23T03:02:20;12.40;99.90
38118;DHT22;23928;47.562;7.508;2024-03-23T03:04:46;12.40;99.90
38118;DHT22;23928;47.562;7.508;2024-03-23T03:07:11;12.50;99.90
38118;DHT22;23928;47.562;7.508;2024-03-23T03:09:37;12.50;99.90
38118;DHT22;23928;47.562;7.508;2024-03-23T03:12:07;12.30;99.90
38118;DHT22;23928;47.562;7.508;2024-03-23T03:14:34;12.20;99.90
38118;DHT22;23928;47.562;7.508;2024-03-23T03:16:59;12.20;99.90
38118;DHT22;23928;47.562;7.508;2024-03-23T03:19:25;12.20;99.90
38118;DHT22;23928;47.562;7.508;2024-03-23T03:21:51;12.10;99.90
38118;DHT22;23928;47.562;7.508;2024-03-23T03:24:16;12.10;99.90
38118;DHT22;23928;47.562;7.508;2024-03-23T03:26:42;12.10;99.90
38118;DHT22;23928;47.562;7.508;2024-03-23T03:29:08;12.10;99.90
38118;DHT22;23928;47.562;7.508;2024-03-23T03:31:34;12.10;99.90
38118;DHT22;23928;47.562;7.508;2024-03-23T03:33:59;11.90;99.90
38118;DHT22;23928;47.562;7.508;2024-03-23T03:36:25;11.90;99.90
38118;DHT22;23928;47.562;7.508;2024-03-23T03:38:50;11.90;99.90
38118;DHT22;23928;47.562;7.508;2024-03-23T03:41:16;12.00;99.90
38118;DHT22;23928;47.562;7.508;2024-03-23T03:43:41;12.00;99.90
38118;DHT22;23928;47.562;7.508;2024-03-23T03:46:07;12.10;99.90
38118;DHT22;23928;47.562;7.508;2024-03-23T03:48:33;12.00;99.90
38118;DHT22;23928;47.562;7.508;2024-03-23T03:50:59;12.10;99.90
38118;DHT22;23928;47.562;7.508;2024-03-23T03:53:25;12.30;99.90
38118;DHT22;23928;47.562;7.508;2024-03-23T03:55:51;12.40;99.90
38118;DHT22;23928;47.562;7.508;2024-03-23T03:58:17;12.50;99.90
38118;DHT22;23928;47.562;7.508;2024-03-23T04:00:43;12.60;99.90
38118;DHT22;23928;47.562;7.508;2024-03-23T04:03:08;12.80;99.90
38118;DHT22;23928;47.562;7.508;2024-03-23T04:05:34;13.20;99.90
38118;DHT22;23928;47.562;7.508;2024-03-23T04:08:00;13.30;99.90
38118;DHT22;23928;47.562;7.508;2024-03-23T04:10:25;12.50;99.90
38118;DHT22;23928;47.562;7.508;2024-03-23T04:12:52;11.90;99.90
38118;DHT22;23928;47.562;7.508;2024-03-23T04:15:18;11.60;99.90
38118;DHT22;23928;47.562;7.508;2024-03-23T04:17:43;11.50;99.90
38118;DHT22;23928;47.562;7.508;2024-03-23T04:20:09;11.50;99.90
38118;DHT22;23928;47.562;7.508;2024-03-23T04:22:39;11.40;99.90
38118;DHT22;23928;47.562;7.508;2024-03-23T04:25:05;11.30;99.90
38118;DHT22;23928;47.562;7.508;2024-03-23T04:27:36;11.40;99.90
38118;DHT22;23928;47.562;7.508;2024-03-23T04:30:03;11.40;99.90
38118;DHT22;23928;47.562;7.508;2024-03-23T04:32:30;11.40;99.90
38118;DHT22;23928;47.562;7.508;2024-03-23T04:34:55;11.50;99.90
38118;DHT22;23928;47.562;7.508;2024-03-23T04:37:21;11.40;99.90
38118;DHT22;23928;47.562;7.508;2024-03-23T04:39:47;11.50;99.90
38118;DHT22;23928;47.562;7.508;2024-03-23T04:42:15;11.50;99.90
38118;DHT22;23928;47.562;7.508;2024-03-23T04:44:41;11.50;99.90
38118;DHT22;23928;47.562;7.508;2024-03-23T04:47:06;11.50;99.90
38118;DHT22;23928;47.562;7.508;2024-03-23T04:49:32;11.50;99.90
38118;DHT22;23928;47.562;7.508;2024-03-23T04:51:57;11.40;99.90
38118;DHT22;23928;47.562;7.508;2024-03-23T04:54:23;11.40;99.90
38118;DHT22;23928;47.562;7.508;2024-03-23T04:56:49;11.40;99.90
38118;DHT22;23928;47.562;7.508;2024-03-23T04:59:15;11.40;99.90
38118;DHT22;23928;47.562;7.508;2024-03-23T05:01:41;11.30;99.90
38118;DHT22;23928;47.562;7.508;2024-03-23T05:04:08;11.30;99.90
38118;DHT22;23928;47.562;7.508;2024-03-23T05:06:34;11.30;99.90
38118;DHT22;23928;47.562;7.508;2024-03-23T05:09:02;11.20;99.90
38118;DHT22;23928;47.562;7.508;2024-03-23T05:11:37;11.10;99.90
38118;DHT22;23928;47.562;7.508;2024-03-23T05:14:03;11.00;99.90
38118;DHT22;23928;47.562;7.508;2024-03-23T05:16:29;11.00;99.90
38118;DHT22;23928;47.562;7.508;2024-03-23T05:18:55;11.00;99.90
38118;DHT22;23928;47.562;7.508;2024-03-23T05:21:20;11.00;99.90
38118;DHT22;23928;47.562;7.508;2024-03-23T05:23:46;11.10;99.90
38118;DHT22;23928;47.562;7.508;2024-03-23T05:26:13;11.00;99.90
38118;DHT22;23928;47.562;7.508;2024-03-23T05:28:39;11.00;99.90
38118;DHT22;23928;47.562;7.508;2024-03-23T05:31:04;10.90;99.90
38118;DHT22;23928;47.562;7.508;2024-03-23T05:33:30;10.80;99.90
38118;DHT22;23928;47.562;7.508;2024-03-23T05:36:00;10.90;99.90
38118;DHT22;23928;47.562;7.508;2024-03-23T05:38:26;10.90;99.90
38118;DHT22;23928;47.562;7.508;2024-03-23T05:41:02;10.80;99.90
38118;DHT22;23928;47.562;7.508;2024-03-23T05:43:28;10.80;99.90
38118;DHT22;23928;47.562;7.508;2024-03-23T05:45:57;10.90;99.90
38118;DHT22;23928;47.562;7.508;2024-03-23T05:48:23;10.90;99.90
38118;DHT22;23928;47.562;7.508;2024-03-23T05:50:49;10.70;99.90
38118;DHT22;23928;47.562;7.508;2024-03-23T05:53:18;10.70;99.90
38118;DHT22;23928;47.562;7.508;2024-03-23T05:55:46;10.60;99.90
38118;DHT22;23928;47.562;7.508;2024-03-23T05:58:17;10.60;99.90
38118;DHT22;23928;47.562;7.508;2024-03-23T06:00:44;10.40;99.90
38118;DHT22;23928;47.562;7.508;2024-03-23T06:03:10;10.20;99.90
38118;DHT22;23928;47.562;7.508;2024-03-23T06:05:36;10.30;99.90
38118;DHT22;23928;47.562;7.508;2024-03-23T06:08:02;10.20;99.90
38118;DHT22;23928;47.562;7.508;2024-03-23T06:10:28;10.30;99.90
38118;DHT22;23928;47.562;7.508;2024-03-23T06:12:54;10.30;99.90
38118;DHT22;23928;47.562;7.508;2024-03-23T06:15:20;10.40;99.90
38118;DHT22;23928;47.562;7.508;2024-03-23T06:17:45;10.30;99.90
38118;DHT22;23928;47.562;7.508;2024-03-23T06:20:12;10.50;99.90
38118;DHT22;23928;47.562;7.508;2024-03-23T06:22:38;10.40;99.90
38118;DHT22;23928;47.562;7.508;2024-03-23T06:25:04;10.40;99.90
38118;DHT22;23928;47.562;7.508;2024-03-23T06:27:30;10.40;99.90
38118;DHT22;23928;47.562;7.508;2024-03-23T06:29:57;10.30;99.90
38118;DHT22;23928;47.562;7.508;2024-03-23T06:32:23;10.30;99.90
38118;DHT22;23928;47.562;7.508;2024-03-23T06:34:48;10.30;99.90
38118;DHT22;23928;47.562;7.508;2024-03-23T06:37:14;10.20;99.90
38118;DHT22;23928;47.562;7.508;2024-03-23T06:39:39;10.20;99.90
38118;DHT22;23928;47.562;7.508;2024-03-23T06:42:05;10.00;99.90
38118;DHT22;23928;47.562;7.508;2024-03-23T06:44:31;9.80;99.90
38118;DHT22;23928;47.562;7.508;2024-03-23T06:46:57;9.70;99.90
38118;DHT22;23928;47.562;7.508;2024-03-23T06:49:23;9.60;99.90
38118;DHT22;23928;47.562;7.508;2024-03-23T06:51:49;9.30;99.90
38118;DHT22;23928;47.562;7.508;2024-03-23T06:54:16;9.10;99.90
38118;DHT22;23928;47.562;7.508;2024-03-23T06:56:43;9.00;99.90
38118;DHT22;23928;47.562;7.508;2024-03-23T06:59:09;9.00;99.90
38118;DHT22;23928;47.562;7.508;2024-03-23T07:01:35;9.00;99.90
38118;DHT22;23928;47.562;7.508;2024-03-23T07:04:01;9.00;99.90
38118;DHT22;23928;47.562;7.508;2024-03-23T07:06:26;8.90;99.90
38118;DHT22;23928;47.562;7.508;2024-03-23T07:08:55;9.00;99.90
38118;DHT22;23928;47.562;7.508;2024-03-23T07:11:23;8.90;99.90
38118;DHT22;23928;47.562;7.508;2024-03-23T07:13:50;8.90;99.90
38118;DHT22;23928;47.562;7.508;2024-03-23T07:16:16;8.70;99.90
38118;DHT22;23928;47.562;7.508;2024-03-23T07:18:42;8.60;99.90
38118;DHT22;23928;47.562;7.508;2024-03-23T07:21:08;8.90;99.90
38118;DHT22;23928;47.562;7.508;2024-03-23T07:23:34;9.00;99.90
38118;DHT22;23928;47.562;7.508;2024-03-23T07:26:04;9.20;99.90
38118;DHT22;23928;47.562;7.508;2024-03-23T07:28:33;9.00;99.90
38118;DHT22;23928;47.562;7.508;2024-03-23T07:31:07;8.90;99.90
38118;DHT22;23928;47.562;7.508;2024-03-23T07:33:37;8.80;99.90
38118;DHT22;23928;47.562;7.508;2024-03-23T07:36:04;8.90;99.90
38118;DHT22;23928;47.562;7.508;2024-03-23T07:38:29;9.10;99.90
38118;DHT22;23928;47.562;7.508;2024-03-23T07:41:18;9.20;99.90
38118;DHT22;23928;47.562;7.508;2024-03-23T07:43:45;9.20;99.90
38118;DHT22;23928;47.562;7.508;2024-03-23T07:46:11;9.30;99.90
38118;DHT22;23928;47.562;7.508;2024-03-23T07:48:39;9.00;99.90
38118;DHT22;23928;47.562;7.508;2024-03-23T07:51:09;8.90;99.90
38118;DHT22;23928;47.562;7.508;2024-03-23T07:53:35;9.10;99.90
38118;DHT22;23928;47.562;7.508;2024-03-23T07:56:07;9.30;99.90
38118;DHT22;23928;47.562;7.508;2024-03-23T07:58:33;9.20;99.90
38118;DHT22;23928;47.562;7.508;2024-03-23T08:01:11;9.30;99.90
38118;DHT22;23928;47.562;7.508;2024-03-23T08:03:39;9.40;99.90
38118;DHT22;23928;47.562;7.508;2024-03-23T08:08:38;9.10;99.90
38118;DHT22;23928;47.562;7.508;2024-03-23T08:11:04;9.20;99.90
38118;DHT22;23928;47.562;7.508;2024-03-23T08:13:30;8.90;99.90
38118;DHT22;23928;47.562;7.508;2024-03-23T08:16:00;8.70;99.90
38118;DHT22;23928;47.562;7.508;2024-03-23T08:18:26;8.60;99.90
38118;DHT22;23928;47.562;7.508;2024-03-23T08:21:10;9.10;99.90
38118;DHT22;23928;47.562;7.508;2024-03-23T08:23:36;9.30;99.90
38118;DHT22;23928;47.562;7.508;2024-03-23T08:26:08;9.50;99.90
38118;DHT22;23928;47.562;7.508;2024-03-23T08:28:35;9.10;99.90
38118;DHT22;23928;47.562;7.508;2024-03-23T08:31:02;9.10;99.90
38118;DHT22;23928;47.562;7.508;2024-03-23T08:33:28;8.90;99.90
38118;DHT22;23928;47.562;7.508;2024-03-23T08:38:20;9.20;99.90
38118;DHT22;23928;47.562;7.508;2024-03-23T08:40:46;9.20;99.90
38118;DHT22;23928;47.562;7.508;2024-03-23T08:43:11;9.10;99.90
38118;DHT22;23928;47.562;7.508;2024-03-23T08:45:37;8.80;99.90
38118;DHT22;23928;47.562;7.508;2024-03-23T08:48:02;8.90;99.90
38118;DHT22;23928;47.562;7.508;2024-03-23T08:50:28;9.20;99.90
38118;DHT22;23928;47.562;7.508;2024-03-23T08:52:54;9.60;99.90
38118;DHT22;23928;47.562;7.508;2024-03-23T08:55:19;9.50;99.90
38118;DHT22;23928;47.562;7.508;2024-03-23T08:57:45;9.50;99.90
38118;DHT22;23928;47.562;7.508;2024-03-23T09:00:11;10.00;99.90
38118;DHT22;23928;47.562;7.508;2024-03-23T09:02:37;10.30;99.90
38118;DHT22;23928;47.562;7.508;2024-03-23T09:05:02;9.90;99.90
38118;DHT22;23928;47.562;7.508;2024-03-23T09:07:32;9.30;99.90
38118;DHT22;23928;47.562;7.508;2024-03-23T09:09:58;9.60;99.90
38118;DHT22;23928;47.562;7.508;2024-03-23T09:12:24;10.00;99.90
38118;DHT22;23928;47.562;7.508;2024-03-23T09:14:50;10.00;99.90
38118;DHT22;23928;47.562;7.508;2024-03-23T09:17:16;9.70;99.90
38118;DHT22;23928;47.562;7.508;2024-03-23T09:19:43;9.70;99.90
38118;DHT22;23928;47.562;7.508;2024-03-23T09:22:09;9.60;99.90
38118;DHT22;23928;47.562;7.508;2024-03-23T09:24:34;9.70;99.90
38118;DHT22;23928;47.562;7.508;2024-03-23T09:27:00;9.90;99.90
38118;DHT22;23928;47.562;7.508;2024-03-23T09:29:25;9.80;99.90
38118;DHT22;23928;47.562;7.508;2024-03-23T09:31:51;9.60;99.90
38118;DHT22;23928;47.562;7.508;2024-03-23T09:34:17;9.60;99.90
38118;DHT22;23928;47.562;7.508;2024-03-23T09:36:42;10.00;99.90
38118;DHT22;23928;47.562;7.508;2024-03-23T09:39:08;10.30;99.90
38118;DHT22;23928;47.562;7.508;2024-03-23T09:41:35;10.50;99.90
38118;DHT22;23928;47.562;7.508;2024-03-23T09:44:01;10.50;99.90
38118;DHT22;23928;47.562;7.508;2024-03-23T09:46:27;10.80;99.90
38118;DHT22;23928;47.562;7.508;2024-03-23T09:48:55;10.50;99.90
38118;DHT22;23928;47.562;7.508;2024-03-23T09:51:21;11.00;99.90
38118;DHT22;23928;47.562;7.508;2024-03-23T09:53:49;11.20;99.90
38118;DHT22;23928;47.562;7.508;2024-03-23T09:56:15;11.20;99.90
38118;DHT22;23928;47.562;7.508;2024-03-23T09:58:42;11.50;99.90
38118;DHT22;23928;47.562;7.508;2024-03-23T10:01:09;11.40;99.90
38118;DHT22;23928;47.562;7.508;2024-03-23T10:03:46;11.70;99.90
38118;DHT22;23928;47.562;7.508;2024-03-23T10:06:12;11.60;99.90
38118;DHT22;23928;47.562;7.508;2024-03-23T10:08:38;11.90;99.90
38118;DHT22;23928;47.562;7.508;2024-03-23T10:11:13;12.10;99.90
38118;DHT22;23928;47.562;7.508;2024-03-23T10:13:42;12.10;99.90
38118;DHT22;23928;47.562;7.508;2024-03-23T10:16:09;12.10;99.90
38118;DHT22;23928;47.562;7.508;2024-03-23T10:18:39;11.90;99.90
38118;DHT22;23928;47.562;7.508;2024-03-23T10:23:34;11.90;99.90
38118;DHT22;23928;47.562;7.508;2024-03-23T10:26:21;12.20;99.90
38118;DHT22;23928;47.562;7.508;2024-03-23T10:28:54;12.40;99.90
38118;DHT22;23928;47.562;7.508;2024-03-23T10:31:22;12.20;99.90
38118;DHT22;23928;47.562;7.508;2024-03-23T10:33:48;12.20;99.90
38118;DHT22;23928;47.562;7.508;2024-03-23T10:36:15;11.90;99.90
38118;DHT22;23928;47.562;7.508;2024-03-23T10:38:43;11.70;99.90
38118;DHT22;23928;47.562;7.508;2024-03-23T10:41:09;11.30;99.90
38118;DHT22;23928;47.562;7.508;2024-03-23T10:43:38;11.50;99.90
38118;DHT22;23928;47.562;7.508;2024-03-23T10:46:04;11.10;99.90
38118;DHT22;23928;47.562;7.508;2024-03-23T10:48:32;11.10;99.90
38118;DHT22;23928;47.562;7.508;2024-03-23T10:50:58;10.90;99.90
38118;DHT22;23928;47.562;7.508;2024-03-23T10:53:26;10.70;99.90
38118;DHT22;23928;47.562;7.508;2024-03-23T10:55:52;10.50;99.90
38118;DHT22;23928;47.562;7.508;2024-03-23T10:58:26;9.50;99.90
38118;DHT22;23928;47.562;7.508;2024-03-23T11:00:53;7.70;99.90
38118;DHT22;23928;47.562;7.508;2024-03-23T11:03:35;6.80;99.90
38118;DHT22;23928;47.562;7.508;2024-03-23T11:06:03;6.20;99.90
38118;DHT22;23928;47.562;7.508;2024-03-23T11:08:37;5.90;99.90
38118;DHT22;23928;47.562;7.508;2024-03-23T11:11:22;6.20;99.90
38118;DHT22;23928;47.562;7.508;2024-03-23T11:13:53;6.50;99.90
38118;DHT22;23928;47.562;7.508;2024-03-23T11:16:28;6.80;99.90
38118;DHT22;23928;47.562;7.508;2024-03-23T11:19:35;7.30;99.90
38118;DHT22;23928;47.562;7.508;2024-03-23T11:22:01;7.20;99.90
38118;DHT22;23928;47.562;7.508;2024-03-23T11:24:27;7.20;99.90
38118;DHT22;23928;47.562;7.508;2024-03-23T11:26:53;7.50;99.90
38118;DHT22;23928;47.562;7.508;2024-03-23T11:29:18;8.30;99.90
38118;DHT22;23928;47.562;7.508;2024-03-23T11:31:50;8.70;99.90
38118;DHT22;23928;47.562;7.508;2024-03-23T11:34:22;9.20;99.90
38118;DHT22;23928;47.562;7.508;2024-03-23T11:36:48;9.40;99.90
38118;DHT22;23928;47.562;7.508;2024-03-23T11:39:17;9.50;99.90
38118;DHT22;23928;47.562;7.508;2024-03-23T11:41:51;9.50;99.90
38118;DHT22;23928;47.562;7.508;2024-03-23T11:44:21;9.10;99.90
38118;DHT22;23928;47.562;7.508;2024-03-23T11:46:50;9.00;99.90
38118;DHT22;23928;47.562;7.508;2024-03-23T11:49:26;9.00;99.90
38118;DHT22;23928;47.562;7.508;2024-03-23T11:51:56;9.30;99.90
38118;DHT22;23928;47.562;7.508;2024-03-23T11:54:26;9.30;99.90
38118;DHT22;23928;47.562;7.508;2024-03-23T11:57:01;9.80;99.90
38118;DHT22;23928;47.562;7.508;2024-03-23T11:59:40;9.70;99.90
38118;DHT22;23928;47.562;7.508;2024-03-23T12:02:21;10.10;99.90
38118;DHT22;23928;47.562;7.508;2024-03-23T12:04:47;10.30;99.90
38118;DHT22;23928;47.562;7.508;2024-03-23T12:07:18;10.30;99.90
38118;DHT22;23928;47.562;7.508;2024-03-23T12:09:45;10.00;99.90
38118;DHT22;23928;47.562;7.508;2024-03-23T12:12:17;9.70;99.90
38118;DHT22;23928;47.562;7.508;2024-03-23T12:15:03;9.60;99.90
38118;DHT22;23928;47.562;7.508;2024-03-23T12:17:29;9.20;99.90
38118;DHT22;23928;47.562;7.508;2024-03-23T12:19:55;8.90;99.90
38118;DHT22;23928;47.562;7.508;2024-03-23T12:22:21;9.40;99.90
38118;DHT22;23928;47.562;7.508;2024-03-23T12:24:47;9.90;99.90
38118;DHT22;23928;47.562;7.508;2024-03-23T12:27:12;10.20;99.90
38118;DHT22;23928;47.562;7.508;2024-03-23T12:29:38;10.70;99.90
38118;DHT22;23928;47.562;7.508;2024-03-23T12:32:05;10.70;99.90
38118;DHT22;23928;47.562;7.508;2024-03-23T12:34:30;10.90;99.90
38118;DHT22;23928;47.562;7.508;2024-03-23T12:36:56;11.60;99.90
38118;DHT22;23928;47.562;7.508;2024-03-23T12:39:22;11.60;99.90
38118;DHT22;23928;47.562;7.508;2024-03-23T12:41:48;12.10;99.90
38118;DHT22;23928;47.562;7.508;2024-03-23T12:44:14;12.30;99.90
38118;DHT22;23928;47.562;7.508;2024-03-23T12:46:41;12.10;99.90
38118;DHT22;23928;47.562;7.508;2024-03-23T12:49:07;11.80;99.90
38118;DHT22;23928;47.562;7.508;2024-03-23T12:51:33;11.00;99.90
38118;DHT22;23928;47.562;7.508;2024-03-23T12:53:59;10.80;99.90
38118;DHT22;23928;47.562;7.508;2024-03-23T12:56:24;11.30;99.90
38118;DHT22;23928;47.562;7.508;2024-03-23T12:58:50;11.70;99.90
38118;DHT22;23928;47.562;7.508;2024-03-23T13:01:20;12.60;99.90
38118;DHT22;23928;47.562;7.508;2024-03-23T13:03:50;12.60;99.90
38118;DHT22;23928;47.562;7.508;2024-03-23T13:06:16;12.40;99.90
38118;DHT22;23928;47.562;7.508;2024-03-23T13:08:47;12.20;99.90
38118;DHT22;23928;47.562;7.508;2024-03-23T13:11:15;12.70;99.90
38118;DHT22;23928;47.562;7.508;2024-03-23T13:13:41;12.30;99.90
38118;DHT22;23928;47.562;7.508;2024-03-23T13:16:07;12.10;99.90
38118;DHT22;23928;47.562;7.508;2024-03-23T13:18:33;11.80;99.90
38118;DHT22;23928;47.562;7.508;2024-03-23T13:20:59;11.40;99.90
38118;DHT22;23928;47.562;7.508;2024-03-23T13:23:25;11.20;99.90
38118;DHT22;23928;47.562;7.508;2024-03-23T13:25:55;11.00;99.90
38118;DHT22;23928;47.562;7.508;2024-03-23T13:28:21;11.20;99.90
38118;DHT22;23928;47.562;7.508;2024-03-23T13:30:54;11.70;99.90
38118;DHT22;23928;47.562;7.508;2024-03-23T13:33:20;11.70;99.90
38118;DHT22;23928;47.562;7.508;2024-03-23T13:35:53;11.90;99.90
38118;DHT22;23928;47.562;7.508;2024-03-23T13:38:19;12.20;99.90
38118;DHT22;23928;47.562;7.508;2024-03-23T13:40:59;12.70;99.90
38118;DHT22;23928;47.562;7.508;2024-03-23T13:43:26;12.60;99.90
38118;DHT22;23928;47.562;7.508;2024-03-23T13:45:57;12.40;99.90
38118;DHT22;23928;47.562;7.508;2024-03-23T13:48:24;12.40;99.90
38118;DHT22;23928;47.562;7.508;2024-03-23T13:51:03;12.40;99.90
38118;DHT22;23928;47.562;7.508;2024-03-23T13:53:29;12.50;99.90
38118;DHT22;23928;47.562;7.508;2024-03-23T13:55:55;12.40;99.90
38118;DHT22;23928;47.562;7.508;2024-03-23T13:58:21;12.50;99.90
38118;DHT22;23928;47.562;7.508;2024-03-23T14:00:47;12.40;99.90
38118;DHT22;23928;47.562;7.508;2024-03-23T14:03:13;12.30;99.90
38118;DHT22;23928;47.562;7.508;2024-03-23T14:05:39;11.50;99.90
38118;DHT22;23928;47.562;7.508;2024-03-23T14:08:09;11.00;99.90
38118;DHT22;23928;47.562;7.508;2024-03-23T14:10:35;11.30;99.90
38118;DHT22;23928;47.562;7.508;2024-03-23T14:13:03;11.80;99.90
38118;DHT22;23928;47.562;7.508;2024-03-23T14:15:29;12.20;99.90
38118;DHT22;23928;47.562;7.508;2024-03-23T14:17:58;12.40;99.90
38118;DHT22;23928;47.562;7.508;2024-03-23T14:20:24;12.40;99.90
38118;DHT22;23928;47.562;7.508;2024-03-23T14:22:51;12.50;99.90
38118;DHT22;23928;47.562;7.508;2024-03-23T14:25:17;12.30;99.90
38118;DHT22;23928;47.562;7.508;2024-03-23T14:27:46;12.20;99.90
38118;DHT22;23928;47.562;7.508;2024-03-23T14:30:12;12.20;99.90
38118;DHT22;23928;47.562;7.508;2024-03-23T14:32:39;12.40;99.90
38118;DHT22;23928;47.562;7.508;2024-03-23T14:35:05;12.30;99.90
38118;DHT22;23928;47.562;7.508;2024-03-23T14:37:32;12.20;99.90
38118;DHT22;23928;47.562;7.508;2024-03-23T14:39:58;11.90;99.90
38118;DHT22;23928;47.562;7.508;2024-03-23T14:42:24;11.50;99.90
38118;DHT22;23928;47.562;7.508;2024-03-23T14:44:51;11.30;99.90
38118;DHT22;23928;47.562;7.508;2024-03-23T14:47:17;11.40;99.90
38118;DHT22;23928;47.562;7.508;2024-03-23T14:49:43;11.30;99.90
38118;DHT22;23928;47.562;7.508;2024-03-23T14:52:13;11.10;99.90
38118;DHT22;23928;47.562;7.508;2024-03-23T14:54:39;10.50;99.90
38118;DHT22;23928;47.562;7.508;2024-03-23T14:57:04;10.40;99.90
38118;DHT22;23928;47.562;7.508;2024-03-23T14:59:30;9.40;99.90
38118;DHT22;23928;47.562;7.508;2024-03-23T15:01:56;9.40;99.90
38118;DHT22;23928;47.562;7.508;2024-03-23T15:04:21;10.30;99.90
38118;DHT22;23928;47.562;7.508;2024-03-23T15:06:47;10.50;99.90
38118;DHT22;23928;47.562;7.508;2024-03-23T15:09:15;10.10;99.90
38118;DHT22;23928;47.562;7.508;2024-03-23T15:11:40;10.40;99.90
38118;DHT22;23928;47.562;7.508;2024-03-23T15:14:06;10.60;99.90
38118;DHT22;23928;47.562;7.508;2024-03-23T15:16:32;10.60;99.90
38118;DHT22;23928;47.562;7.508;2024-03-23T15:18:58;10.80;99.90
38118;DHT22;23928;47.562;7.508;2024-03-23T15:21:24;10.90;99.90
38118;DHT22;23928;47.562;7.508;2024-03-23T15:23:49;10.70;99.90
38118;DHT22;23928;47.562;7.508;2024-03-23T15:26:15;10.70;99.90
38118;DHT22;23928;47.562;7.508;2024-03-23T15:28:43;10.50;99.90
38118;DHT22;23928;47.562;7.508;2024-03-23T15:31:21;10.40;99.90
38118;DHT22;23928;47.562;7.508;2024-03-23T15:33:47;10.40;99.90
38118;DHT22;23928;47.562;7.508;2024-03-23T15:36:12;10.60;99.90
38118;DHT22;23928;47.562;7.508;2024-03-23T15:38:38;10.50;99.90
38118;DHT22;23928;47.562;7.508;2024-03-23T15:41:07;10.60;99.90
38118;DHT22;23928;47.562;7.508;2024-03-23T15:43:33;10.60;99.90
38118;DHT22;23928;47.562;7.508;2024-03-23T15:46:04;10.30;99.90
38118;DHT22;23928;47.562;7.508;2024-03-23T15:48:30;10.10;99.90
38118;DHT22;23928;47.562;7.508;2024-03-23T15:50:58;10.20;99.90
38118;DHT22;23928;47.562;7.508;2024-03-23T15:53:25;10.50;99.90
38118;DHT22;23928;47.562;7.508;2024-03-23T15:56:04;10.50;99.90
38118;DHT22;23928;47.562;7.508;2024-03-23T15:58:32;10.50;99.90
38118;DHT22;23928;47.562;7.508;2024-03-23T16:01:08;10.70;99.90
38118;DHT22;23928;47.562;7.508;2024-03-23T16:03:37;10.80;99.90
38118;DHT22;23928;47.562;7.508;2024-03-23T16:06:04;10.70;99.90
38118;DHT22;23928;47.562;7.508;2024-03-23T16:08:30;10.70;99.90
38118;DHT22;23928;47.562;7.508;2024-03-23T16:11:03;10.70;99.90
38118;DHT22;23928;47.562;7.508;2024-03-23T16:13:30;10.70;99.90
38118;DHT22;23928;47.562;7.508;2024-03-23T16:15:56;10.70;99.90
38118;DHT22;23928;47.562;7.508;2024-03-23T16:18:23;10.50;99.90
38118;DHT22;23928;47.562;7.508;2024-03-23T16:20:54;10.30;99.90
38118;DHT22;23928;47.562;7.508;2024-03-23T16:23:20;9.80;99.90
38118;DHT22;23928;47.562;7.508;2024-03-23T16:25:52;9.10;99.90
38118;DHT22;23928;47.562;7.508;2024-03-23T16:28:29;9.00;99.90
38118;DHT22;23928;47.562;7.508;2024-03-23T16:33:20;8.80;99.90
38118;DHT22;23928;47.562;7.508;2024-03-23T16:35:55;8.50;99.90
38118;DHT22;23928;47.562;7.508;2024-03-23T16:38:21;8.30;99.90
38118;DHT22;23928;47.562;7.508;2024-03-23T16:41:00;8.40;99.90